sensor_id;sensor_type;location;lat;lon;timestamp;pressure;altitude;pressure_sealevel;temperature;humidity
41246;BME280;53880;47.526;18.986;2024-03-17T00:01:12;99970.16;;;20.91;46.47
41246;BME280;53880;47.526;18.986;2024-03-17T00:03:53;99970.63;;;20.86;46.39
41246;BME280;53880;47.526;18.986;2024-03-17T00:06:19;99967.94;;;20.86;46.82
41246;BME280;53880;47.526;18.986;2024-03-17T00:08:38;99975.13;;;20.86;46.88
41246;BME280;53880;47.526;18.986;2024-03-17T00:10:56;99971.97;;;20.82;47.17
41246;BME280;53880;47.526;18.986;2024-03-17T00:13:14;99973.75;;;20.74;46.71
41246;BME280;53880;47.526;18.986;2024-03-17T00:15:29;99981.44;;;20.69;46.77
41246;BME280;53880;47.526;18.986;2024-03-17T00:17:46;99973.19;;;20.62;46.08
41246;BME280;53880;47.526;18.986;2024-03-17T00:20:07;99970.66;;;20.52;46.04
41246;BME280;53880;47.526;18.986;2024-03-17T00:22:36;99965.78;;;20.48;46.14
41246;BME280;53880;47.526;18.986;2024-03-17T00:24:59;99971.78;;;20.42;46.20
41246;BME280;53880;47.526;18.986;2024-03-17T00:27:24;99964.53;;;20.34;46.20
41246;BME280;53880;47.526;18.986;2024-03-17T00:29:39;99972.03;;;20.31;46.24
41246;BME280;53880;47.526;18.986;2024-03-17T00:31:54;99965.66;;;20.32;46.19
41246;BME280;53880;47.526;18.986;2024-03-17T00:34:12;99968.00;;;20.27;46.00
41246;BME280;53880;47.526;18.986;2024-03-17T00:36:29;99973.66;;;20.24;46.19
41246;BME280;53880;47.526;18.986;2024-03-17T00:38:47;99962.44;;;20.20;45.78
41246;BME280;53880;47.526;18.986;2024-03-17T00:41:05;99968.06;;;20.17;45.83
41246;BME280;53880;47.526;18.986;2024-03-17T00:43:21;99961.34;;;20.13;45.85
41246;BME280;53880;47.526;18.986;2024-03-17T00:45:38;99973.19;;;20.11;45.69
41246;BME280;53880;47.526;18.986;2024-03-17T00:47:53;99970.81;;;20.08;45.82
41246;BME280;53880;47.526;18.986;2024-03-17T00:50:11;99966.50;;;20.07;45.74
41246;BME280;53880;47.526;18.986;2024-03-17T00:52:29;99977.34;;;20.05;45.97
41246;BME280;53880;47.526;18.986;2024-03-17T00:54:51;99965.97;;;20.03;45.94
41246;BME280;53880;47.526;18.986;2024-03-17T00:57:08;99966.28;;;20.00;45.56
41246;BME280;53880;47.526;18.986;2024-03-17T00:59:25;99969.94;;;19.99;45.49
41246;BME280;53880;47.526;18.986;2024-03-17T01:01:41;99978.13;;;19.98;45.65
41246;BME280;53880;47.526;18.986;2024-03-17T01:04:01;99967.75;;;19.95;45.71
41246;BME280;53880;47.526;18.986;2024-03-17T01:06:18;99966.69;;;19.88;45.60
41246;BME280;53880;47.526;18.986;2024-03-17T01:08:35;99964.19;;;19.86;45.65
41246;BME280;53880;47.526;18.986;2024-03-17T01:10:53;99968.81;;;19.84;45.35
41246;BME280;53880;47.526;18.986;2024-03-17T01:13:13;99960.09;;;19.82;45.63
41246;BME280;53880;47.526;18.986;2024-03-17T01:15:34;99954.75;;;19.82;45.44
41246;BME280;53880;47.526;18.986;2024-03-17T01:17:54;99965.63;;;19.81;45.55
41246;BME280;53880;47.526;18.986;2024-03-17T01:20:09;99970.28;;;19.78;45.45
41246;BME280;53880;47.526;18.986;2024-03-17T01:22:27;99965.09;;;19.77;45.70
41246;BME280;53880;47.526;18.986;2024-03-17T01:24:48;99963.75;;;19.73;45.74
41246;BME280;53880;47.526;18.986;2024-03-17T01:27:03;99965.84;;;19.69;45.58
41246;BME280;53880;47.526;18.986;2024-03-17T01:29:21;99965.84;;;19.69;45.85
41246;BME280;53880;47.526;18.986;2024-03-17T01:31:41;99962.84;;;19.64;45.96
41246;BME280;53880;47.526;18.986;2024-03-17T01:33:56;99958.47;;;19.63;45.91
41246;BME280;53880;47.526;18.986;2024-03-17T01:36:16;99964.78;;;19.62;45.83
41246;BME280;53880;47.526;18.986;2024-03-17T01:38:34;99957.09;;;19.59;45.75
41246;BME280;53880;47.526;18.986;2024-03-17T01:40:54;99956.56;;;19.56;45.88
41246;BME280;53880;47.526;18.986;2024-03-17T01:43:14;99961.19;;;19.54;45.75
41246;BME280;53880;47.526;18.986;2024-03-17T01:45:34;99967.56;;;19.53;46.11
41246;BME280;53880;47.526;18.986;2024-03-17T01:47:53;99960.53;;;19.52;45.91
41246;BME280;53880;47.526;18.986;2024-03-17T01:50:12;99964.03;;;19.52;45.79
41246;BME280;53880;47.526;18.986;2024-03-17T01:52:34;99958.84;;;19.51;45.89
41246;BME280;53880;47.526;18.986;2024-03-17T01:54:54;99963.53;;;19.49;46.00
41246;BME280;53880;47.526;18.986;2024-03-17T01:57:15;99965.19;;;19.50;46.01
41246;BME280;53880;47.526;18.986;2024-03-17T01:59:30;99969.00;;;19.47;45.98
41246;BME280;53880;47.526;18.986;2024-03-17T02:01:50;99973.53;;;19.47;45.99
41246;BME280;53880;47.526;18.986;2024-03-17T02:04:05;99970.28;;;19.43;45.97
41246;BME280;53880;47.526;18.986;2024-03-17T02:06:24;99983.81;;;19.42;46.24
41246;BME280;53880;47.526;18.986;2024-03-17T02:08:53;99983.81;;;19.42;46.20
41246;BME280;53880;47.526;18.986;2024-03-17T02:13:45;99977.94;;;19.38;46.21
41246;BME280;53880;47.526;18.986;2024-03-17T02:16:03;99979.94;;;19.36;46.15
41246;BME280;53880;47.526;18.986;2024-03-17T02:18:21;99984.44;;;19.36;46.12
41246;BME280;53880;47.526;18.986;2024-03-17T02:20:41;99985.41;;;19.35;46.03
41246;BME280;53880;47.526;18.986;2024-03-17T02:23:18;99997.94;;;19.34;46.19
41246;BME280;53880;47.526;18.986;2024-03-17T02:25:36;99996.50;;;19.30;46.17
41246;BME280;53880;47.526;18.986;2024-03-17T02:27:53;99996.44;;;19.22;46.26
41246;BME280;53880;47.526;18.986;2024-03-17T02:30:13;99998.84;;;19.16;46.39
41246;BME280;53880;47.526;18.986;2024-03-17T02:32:38;100000.16;;;19.12;46.56
41246;BME280;53880;47.526;18.986;2024-03-17T02:34:53;99999.47;;;19.10;46.63
41246;BME280;53880;47.526;18.986;2024-03-17T02:37:11;100022.13;;;19.06;46.54
41246;BME280;53880;47.526;18.986;2024-03-17T02:39:27;100023.09;;;19.04;46.76
41246;BME280;53880;47.526;18.986;2024-03-17T02:41:55;100026.19;;;19.00;46.55
41246;BME280;53880;47.526;18.986;2024-03-17T02:44:11;100013.00;;;18.98;46.60
41246;BME280;53880;47.526;18.986;2024-03-17T02:46:28;100020.34;;;18.96;46.70
41246;BME280;53880;47.526;18.986;2024-03-17T02:48:53;100017.81;;;18.95;46.79
41246;BME280;53880;47.526;18.986;2024-03-17T02:51:18;100022.47;;;18.93;46.52
41246;BME280;53880;47.526;18.986;2024-03-17T02:53:34;100018.25;;;18.90;46.53
41246;BME280;53880;47.526;18.986;2024-03-17T02:55:51;100013.22;;;18.87;46.72
41246;BME280;53880;47.526;18.986;2024-03-17T02:58:09;100006.19;;;18.86;46.53
41246;BME280;53880;47.526;18.986;2024-03-17T03:00:26;100008.31;;;18.83;46.75
41246;BME280;53880;47.526;18.986;2024-03-17T03:02:41;100010.28;;;18.81;46.82
41246;BME280;53880;47.526;18.986;2024-03-17T03:04:59;100004.25;;;18.79;46.80
41246;BME280;53880;47.526;18.986;2024-03-17T03:07:14;100000.03;;;18.76;46.83
41246;BME280;53880;47.526;18.986;2024-03-17T03:09:34;100001.22;;;18.74;46.60
41246;BME280;53880;47.526;18.986;2024-03-17T03:11:52;100012.16;;;18.71;46.82
41246;BME280;53880;47.526;18.986;2024-03-17T03:14:12;100009.78;;;18.68;46.89
41246;BME280;53880;47.526;18.986;2024-03-17T03:16:33;100020.59;;;18.66;46.93
41246;BME280;53880;47.526;18.986;2024-03-17T03:18:53;100019.91;;;18.64;46.66
41246;BME280;53880;47.526;18.986;2024-03-17T03:21:09;100015.72;;;18.62;46.61
41246;BME280;53880;47.526;18.986;2024-03-17T03:23:31;100015.88;;;18.60;46.45
41246;BME280;53880;47.526;18.986;2024-03-17T03:25:54;100022.31;;;18.58;46.44
41246;BME280;53880;47.526;18.986;2024-03-17T03:28:09;100016.28;;;18.56;46.54
41246;BME280;53880;47.526;18.986;2024-03-17T03:30:27;100019.13;;;18.54;46.35
41246;BME280;53880;47.526;18.986;2024-03-17T03:32:45;100012.94;;;18.54;46.49
41246;BME280;53880;47.526;18.986;2024-03-17T03:35:05;100021.09;;;18.52;46.28
41246;BME280;53880;47.526;18.986;2024-03-17T03:37:23;100011.56;;;18.50;46.42
41246;BME280;53880;47.526;18.986;2024-03-17T03:39:41;100026.88;;;18.48;46.38
41246;BME280;53880;47.526;18.986;2024-03-17T03:42:01;100026.16;;;18.46;46.13
41246;BME280;53880;47.526;18.986;2024-03-17T03:44:18;100038.78;;;18.44;46.36
41246;BME280;53880;47.526;18.986;2024-03-17T03:46:36;100033.72;;;18.41;46.13
41246;BME280;53880;47.526;18.986;2024-03-17T03:48:51;100032.88;;;18.40;46.15
41246;BME280;53880;47.526;18.986;2024-03-17T03:51:07;100042.16;;;18.36;46.22
41246;BME280;53880;47.526;18.986;2024-03-17T03:53:25;100045.94;;;18.34;46.20
41246;BME280;53880;47.526;18.986;2024-03-17T03:55:45;100048.59;;;18.34;46.40
41246;BME280;53880;47.526;18.986;2024-03-17T03:58:08;100058.44;;;18.33;46.43
41246;BME280;53880;47.526;18.986;2024-03-17T04:00:27;100062.38;;;18.29;46.22
41246;BME280;53880;47.526;18.986;2024-03-17T04:02:49;100047.38;;;18.28;46.14
41246;BME280;53880;47.526;18.986;2024-03-17T04:05:12;100056.50;;;18.25;46.25
41246;BME280;53880;47.526;18.986;2024-03-17T04:07:28;100061.97;;;18.24;46.19
41246;BME280;53880;47.526;18.986;2024-03-17T04:09:43;100055.09;;;18.21;45.92
41246;BME280;53880;47.526;18.986;2024-03-17T04:12:00;100059.75;;;18.19;45.91
41246;BME280;53880;47.526;18.986;2024-03-17T04:14:15;100061.00;;;18.15;45.87
41246;BME280;53880;47.526;18.986;2024-03-17T04:16:36;100059.47;;;18.13;45.58
41246;BME280;53880;47.526;18.986;2024-03-17T04:18:53;100067.72;;;18.10;45.41
41246;BME280;53880;47.526;18.986;2024-03-17T04:21:11;100060.84;;;18.07;45.33
41246;BME280;53880;47.526;18.986;2024-03-17T04:23:28;100073.38;;;18.07;45.37
41246;BME280;53880;47.526;18.986;2024-03-17T04:25:44;100064.66;;;18.05;44.99
41246;BME280;53880;47.526;18.986;2024-03-17T04:28:01;100069.28;;;18.03;44.85
41246;BME280;53880;47.526;18.986;2024-03-17T04:30:24;100067.75;;;18.00;44.60
41246;BME280;53880;47.526;18.986;2024-03-17T04:32:43;100067.88;;;17.99;44.55
41246;BME280;53880;47.526;18.986;2024-03-17T04:35:00;100056.50;;;17.97;44.01
41246;BME280;53880;47.526;18.986;2024-03-17T04:37:21;100057.63;;;17.94;43.73
41246;BME280;53880;47.526;18.986;2024-03-17T04:39:43;100051.75;;;17.91;43.54
41246;BME280;53880;47.526;18.986;2024-03-17T04:42:06;100050.19;;;17.88;43.65
41246;BME280;53880;47.526;18.986;2024-03-17T04:44:22;100049.50;;;17.86;43.72
41246;BME280;53880;47.526;18.986;2024-03-17T04:46:41;100040.53;;;17.87;43.53
41246;BME280;53880;47.526;18.986;2024-03-17T04:48:57;100036.31;;;17.85;43.37
41246;BME280;53880;47.526;18.986;2024-03-17T04:51:16;100044.47;;;17.83;43.56
41246;BME280;53880;47.526;18.986;2024-03-17T04:53:35;100037.44;;;17.82;43.57
41246;BME280;53880;47.526;18.986;2024-03-17T04:56:04;100034.09;;;17.80;43.86
41246;BME280;53880;47.526;18.986;2024-03-17T04:58:28;100041.38;;;17.78;44.00
41246;BME280;53880;47.526;18.986;2024-03-17T05:00:45;100046.00;;;17.76;43.83
41246;BME280;53880;47.526;18.986;2024-03-17T05:03:05;100044.31;;;17.75;43.96
41246;BME280;53880;47.526;18.986;2024-03-17T05:05:25;100053.41;;;17.73;43.80
41246;BME280;53880;47.526;18.986;2024-03-17T05:07:45;100056.09;;;17.73;43.86
41246;BME280;53880;47.526;18.986;2024-03-17T05:10:06;100063.66;;;17.77;43.84
41246;BME280;53880;47.526;18.986;2024-03-17T05:12:26;100046.13;;;17.84;43.52
41246;BME280;53880;47.526;18.986;2024-03-17T05:14:48;100049.94;;;17.91;43.33
41246;BME280;53880;47.526;18.986;2024-03-17T05:17:08;100065.22;;;17.99;43.00
41246;BME280;53880;47.526;18.986;2024-03-17T05:19:26;100055.53;;;18.07;42.81
41246;BME280;53880;47.526;18.986;2024-03-17T05:21:46;100073.19;;;18.18;42.37
41246;BME280;53880;47.526;18.986;2024-03-17T05:24:08;100066.03;;;18.28;42.00
41246;BME280;53880;47.526;18.986;2024-03-17T05:26:26;100089.47;;;18.34;41.71
41246;BME280;53880;47.526;18.986;2024-03-17T05:28:45;100092.41;;;18.41;41.64
41246;BME280;53880;47.526;18.986;2024-03-17T05:31:05;100079.22;;;18.49;41.32
41246;BME280;53880;47.526;18.986;2024-03-17T05:33:21;100080.59;;;18.53;41.04
41246;BME280;53880;47.526;18.986;2024-03-17T05:35:41;100074.00;;;18.57;40.78
41246;BME280;53880;47.526;18.986;2024-03-17T05:38:09;100085.78;;;18.64;40.74
41246;BME280;53880;47.526;18.986;2024-03-17T05:40:28;100078.16;;;18.78;40.96
41246;BME280;53880;47.526;18.986;2024-03-17T05:42:45;100078.22;;;18.96;40.85
41246;BME280;53880;47.526;18.986;2024-03-17T05:45:00;100074.06;;;19.11;40.92
41246;BME280;53880;47.526;18.986;2024-03-17T05:47:17;100071.91;;;19.24;41.23
41246;BME280;53880;47.526;18.986;2024-03-17T05:49:38;100079.47;;;19.38;41.36
41246;BME280;53880;47.526;18.986;2024-03-17T05:51:53;100065.06;;;19.49;41.31
41246;BME280;53880;47.526;18.986;2024-03-17T05:54:15;100064.00;;;19.59;41.60
41246;BME280;53880;47.526;18.986;2024-03-17T05:56:33;100072.94;;;19.68;41.74
41246;BME280;53880;47.526;18.986;2024-03-17T05:58:49;100063.16;;;19.76;41.57
41246;BME280;53880;47.526;18.986;2024-03-17T06:01:08;100065.06;;;19.84;41.75
41246;BME280;53880;47.526;18.986;2024-03-17T06:03:26;100073.19;;;19.92;41.78
41246;BME280;53880;47.526;18.986;2024-03-17T06:05:43;100055.38;;;20.01;41.93
41246;BME280;53880;47.526;18.986;2024-03-17T06:08:07;100075.00;;;20.09;41.87
41246;BME280;53880;47.526;18.986;2024-03-17T06:10:23;100082.41;;;20.15;41.91
41246;BME280;53880;47.526;18.986;2024-03-17T06:12:39;100094.88;;;20.24;42.18
41246;BME280;53880;47.526;18.986;2024-03-17T06:14:59;100091.59;;;20.30;41.98
41246;BME280;53880;47.526;18.986;2024-03-17T06:17:16;100084.63;;;20.37;42.12
41246;BME280;53880;47.526;18.986;2024-03-17T06:19:31;100082.31;;;20.42;42.34
41246;BME280;53880;47.526;18.986;2024-03-17T06:21:51;100089.72;;;20.48;42.35
41246;BME280;53880;47.526;18.986;2024-03-17T06:24:06;100087.41;;;20.53;42.22
41246;BME280;53880;47.526;18.986;2024-03-17T06:26:27;100080.44;;;20.61;42.28
41246;BME280;53880;47.526;18.986;2024-03-17T06:28:47;100087.84;;;20.67;42.28
41246;BME280;53880;47.526;18.986;2024-03-17T06:31:08;100086.22;;;20.74;42.48
41246;BME280;53880;47.526;18.986;2024-03-17T06:33:27;100083.91;;;20.79;42.33
41246;BME280;53880;47.526;18.986;2024-03-17T06:35:47;100071.72;;;20.84;42.51
41246;BME280;53880;47.526;18.986;2024-03-17T06:38:09;100073.56;;;20.92;42.48
41246;BME280;53880;47.526;18.986;2024-03-17T06:40:29;100071.25;;;20.97;42.64
41246;BME280;53880;47.526;18.986;2024-03-17T06:42:52;100067.97;;;21.03;42.64
41246;BME280;53880;47.526;18.986;2024-03-17T06:45:15;100073.53;;;21.09;42.54
41246;BME280;53880;47.526;18.986;2024-03-17T06:47:38;100081.09;;;21.14;42.47
41246;BME280;53880;47.526;18.986;2024-03-17T06:49:58;100100.03;;;21.20;42.69
41246;BME280;53880;47.526;18.986;2024-03-17T06:52:20;100103.25;;;21.24;42.50
41246;BME280;53880;47.526;18.986;2024-03-17T06:54:40;100118.81;;;21.28;42.63
41246;BME280;53880;47.526;18.986;2024-03-17T06:56:55;100116.00;;;21.30;42.42
41246;BME280;53880;47.526;18.986;2024-03-17T06:59:10;100121.19;;;21.32;42.54
41246;BME280;53880;47.526;18.986;2024-03-17T07:01:28;100119.38;;;21.32;42.86
41246;BME280;53880;47.526;18.986;2024-03-17T07:03:48;100110.31;;;21.33;42.94
41246;BME280;53880;47.526;18.986;2024-03-17T07:06:05;100107.63;;;21.33;43.04
41246;BME280;53880;47.526;18.986;2024-03-17T07:08:26;100112.00;;;21.34;42.84
41246;BME280;53880;47.526;18.986;2024-03-17T07:10:43;100114.00;;;21.32;42.94
41246;BME280;53880;47.526;18.986;2024-03-17T07:13:02;100110.47;;;21.32;43.10
41246;BME280;53880;47.526;18.986;2024-03-17T07:15:22;100115.00;;;21.31;42.92
41246;BME280;53880;47.526;18.986;2024-03-17T07:17:42;100116.00;;;21.30;42.91
41246;BME280;53880;47.526;18.986;2024-03-17T07:20:00;100115.16;;;21.30;43.16
41246;BME280;53880;47.526;18.986;2024-03-17T07:22:18;100119.84;;;21.27;43.08
41246;BME280;53880;47.526;18.986;2024-03-17T07:24:36;100118.50;;;21.23;43.00
41246;BME280;53880;47.526;18.986;2024-03-17T07:26:56;100120.16;;;21.24;43.33
41246;BME280;53880;47.526;18.986;2024-03-17T07:29:13;100116.66;;;21.24;43.13
41246;BME280;53880;47.526;18.986;2024-03-17T07:31:31;100109.78;;;21.21;43.19
41246;BME280;53880;47.526;18.986;2024-03-17T07:33:48;100118.78;;;21.20;43.25
41246;BME280;53880;47.526;18.986;2024-03-17T07:36:06;100114.28;;;21.21;43.10
41246;BME280;53880;47.526;18.986;2024-03-17T07:38:27;100114.28;;;21.21;43.30
41246;BME280;53880;47.526;18.986;2024-03-17T07:40:54;100111.91;;;21.18;43.22
41246;BME280;53880;47.526;18.986;2024-03-17T07:43:12;100105.41;;;21.20;43.31
41246;BME280;53880;47.526;18.986;2024-03-17T07:45:30;100112.94;;;21.17;43.50
41246;BME280;53880;47.526;18.986;2024-03-17T07:47:45;100097.84;;;21.16;43.50
41246;BME280;53880;47.526;18.986;2024-03-17T07:50:05;100127.69;;;21.21;43.45
41246;BME280;53880;47.526;18.986;2024-03-17T07:52:21;100113.09;;;21.15;43.21
41246;BME280;53880;47.526;18.986;2024-03-17T07:54:39;100120.97;;;21.17;43.15
41246;BME280;53880;47.526;18.986;2024-03-17T07:56:56;100106.56;;;21.18;43.32
41246;BME280;53880;47.526;18.986;2024-03-17T07:59:15;100112.25;;;21.15;43.32
41246;BME280;53880;47.526;18.986;2024-03-17T08:01:37;100117.25;;;21.10;43.14
41246;BME280;53880;47.526;18.986;2024-03-17T08:03:59;100116.38;;;21.09;43.16
41246;BME280;53880;47.526;18.986;2024-03-17T08:06:21;100123.91;;;21.06;43.47
41246;BME280;53880;47.526;18.986;2024-03-17T08:08:37;100133.31;;;21.10;43.19
41246;BME280;53880;47.526;18.986;2024-03-17T08:10:55;100129.31;;;21.14;43.06
41246;BME280;53880;47.526;18.986;2024-03-17T08:13:17;100125.47;;;21.16;43.13
41246;BME280;53880;47.526;18.986;2024-03-17T08:15:35;100117.44;;;21.16;42.99
41246;BME280;53880;47.526;18.986;2024-03-17T08:17:53;100130.84;;;21.16;43.09
41246;BME280;53880;47.526;18.986;2024-03-17T08:20:09;100128.00;;;21.18;43.31
41246;BME280;53880;47.526;18.986;2024-03-17T08:22:27;100139.88;;;21.15;43.16
41246;BME280;53880;47.526;18.986;2024-03-17T08:24:46;100137.88;;;21.17;43.15
41246;BME280;53880;47.526;18.986;2024-03-17T08:27:06;100137.03;;;21.17;43.33
41246;BME280;53880;47.526;18.986;2024-03-17T08:29:26;100140.56;;;21.17;43.24
41246;BME280;53880;47.526;18.986;2024-03-17T08:31:41;100148.59;;;21.17;43.23
41246;BME280;53880;47.526;18.986;2024-03-17T08:33:57;100149.59;;;21.16;43.16
41246;BME280;53880;47.526;18.986;2024-03-17T08:36:19;100159.31;;;21.17;43.22
41246;BME280;53880;47.526;18.986;2024-03-17T08:38:39;100147.75;;;21.17;43.31
41246;BME280;53880;47.526;18.986;2024-03-17T08:41:03;100152.78;;;21.20;43.50
41246;BME280;53880;47.526;18.986;2024-03-17T08:43:23;100158.50;;;21.25;43.46
41246;BME280;53880;47.526;18.986;2024-03-17T08:45:43;100164.88;;;21.24;43.23
41246;BME280;53880;47.526;18.986;2024-03-17T08:48:06;100159.47;;;21.16;43.30
41246;BME280;53880;47.526;18.986;2024-03-17T08:50:23;100150.91;;;21.12;43.63
41246;BME280;53880;47.526;18.986;2024-03-17T08:52:38;100158.78;;;21.14;43.54
41246;BME280;53880;47.526;18.986;2024-03-17T08:54:58;100156.78;;;21.16;43.53
41246;BME280;53880;47.526;18.986;2024-03-17T08:57:13;100147.06;;;21.15;43.54
41246;BME280;53880;47.526;18.986;2024-03-17T08:59:29;100149.91;;;21.13;43.79
41246;BME280;53880;47.526;18.986;2024-03-17T09:01:44;100160.47;;;21.15;43.80
41246;BME280;53880;47.526;18.986;2024-03-17T09:04:02;100149.22;;;21.11;43.91
41246;BME280;53880;47.526;18.986;2024-03-17T09:06:20;100160.78;;;21.12;43.78
41246;BME280;53880;47.526;18.986;2024-03-17T09:08:37;100162.09;;;21.08;43.72
41246;BME280;53880;47.526;18.986;2024-03-17T09:10:54;100161.41;;;21.06;43.90
41246;BME280;53880;47.526;18.986;2024-03-17T09:13:15;100163.09;;;21.07;43.81
41246;BME280;53880;47.526;18.986;2024-03-17T09:15:32;100169.28;;;21.07;43.72
41246;BME280;53880;47.526;18.986;2024-03-17T09:17:48;100176.47;;;21.07;43.88
41246;BME280;53880;47.526;18.986;2024-03-17T09:20:09;100181.84;;;21.07;43.86
41246;BME280;53880;47.526;18.986;2024-03-17T09:22:29;100187.06;;;21.08;43.86
41246;BME280;53880;47.526;18.986;2024-03-17T09:24:47;100198.63;;;21.09;43.96
41246;BME280;53880;47.526;18.986;2024-03-17T09:27:07;100195.94;;;21.09;43.94
41246;BME280;53880;47.526;18.986;2024-03-17T09:29:27;100192.41;;;21.08;43.94
41246;BME280;53880;47.526;18.986;2024-03-17T09:31:42;100192.56;;;21.07;44.03
41246;BME280;53880;47.526;18.986;2024-03-17T09:34:02;100187.06;;;21.08;44.12
41246;BME280;53880;47.526;18.986;2024-03-17T09:36:21;100173.19;;;21.13;43.86
41246;BME280;53880;47.526;18.986;2024-03-17T09:38:40;100184.72;;;21.13;43.88
41246;BME280;53880;47.526;18.986;2024-03-17T09:40:59;100184.72;;;21.13;43.98
41246;BME280;53880;47.526;18.986;2024-03-17T09:43:19;100180.53;;;21.11;43.81
41246;BME280;53880;47.526;18.986;2024-03-17T09:45:37;100179.88;;;21.09;44.09
41246;BME280;53880;47.526;18.986;2024-03-17T09:47:57;100184.38;;;21.08;44.09
41246;BME280;53880;47.526;18.986;2024-03-17T09:50:15;100185.22;;;21.09;43.88
41246;BME280;53880;47.526;18.986;2024-03-17T09:52:36;100194.56;;;21.05;43.98
41246;BME280;53880;47.526;18.986;2024-03-17T09:55:00;100189.34;;;21.03;43.52
41246;BME280;53880;47.526;18.986;2024-03-17T09:57:24;100196.97;;;20.98;43.53
41246;BME280;53880;47.526;18.986;2024-03-17T09:59:42;100191.97;;;20.95;43.57
41246;BME280;53880;47.526;18.986;2024-03-17T10:02:01;100191.09;;;20.95;43.53
41246;BME280;53880;47.526;18.986;2024-03-17T10:04:33;100194.81;;;20.94;43.59
41246;BME280;53880;47.526;18.986;2024-03-17T10:06:51;100198.75;;;20.90;43.27
41246;BME280;53880;47.526;18.986;2024-03-17T10:09:15;100186.69;;;20.86;43.20
41246;BME280;53880;47.526;18.986;2024-03-17T10:11:38;100195.56;;;20.86;43.37
41246;BME280;53880;47.526;18.986;2024-03-17T10:14:07;100181.78;;;20.81;43.29
41246;BME280;53880;47.526;18.986;2024-03-17T10:16:29;100196.38;;;20.79;43.08
41246;BME280;53880;47.526;18.986;2024-03-17T10:18:44;100189.31;;;20.78;43.37
41246;BME280;53880;47.526;18.986;2024-03-17T10:21:25;100182.75;;;20.72;43.40
41246;BME280;53880;47.526;18.986;2024-03-17T10:23:45;100176.91;;;20.77;43.14
41246;BME280;53880;47.526;18.986;2024-03-17T10:26:13;100174.94;;;20.79;42.87
41246;BME280;53880;47.526;18.986;2024-03-17T10:28:29;100182.66;;;20.82;42.75
41246;BME280;53880;47.526;18.986;2024-03-17T10:30:57;100167.13;;;20.85;42.98
41246;BME280;53880;47.526;18.986;2024-03-17T10:33:25;100172.66;;;20.92;42.78
41246;BME280;53880;47.526;18.986;2024-03-17T10:35:45;100175.56;;;20.98;42.87
41246;BME280;53880;47.526;18.986;2024-03-17T10:38:04;100166.09;;;21.04;42.57
41246;BME280;53880;47.526;18.986;2024-03-17T10:40:26;100151.22;;;21.09;42.57
41246;BME280;53880;47.526;18.986;2024-03-17T10:42:41;100159.63;;;21.14;42.65
41246;BME280;53880;47.526;18.986;2024-03-17T10:44:59;100152.78;;;21.20;42.60
41246;BME280;53880;47.526;18.986;2024-03-17T10:47:22;100164.72;;;21.25;42.53
41246;BME280;53880;47.526;18.986;2024-03-17T10:49:39;100147.31;;;21.30;42.28
41246;BME280;53880;47.526;18.986;2024-03-17T10:52:08;100147.81;;;21.33;42.40
41246;BME280;53880;47.526;18.986;2024-03-17T10:54:36;100136.78;;;21.36;42.17
41246;BME280;53880;47.526;18.986;2024-03-17T10:56:53;100133.09;;;21.37;42.35
41246;BME280;53880;47.526;18.986;2024-03-17T10:59:13;100121.38;;;21.38;42.20
41246;BME280;53880;47.526;18.986;2024-03-17T11:01:40;100117.88;;;21.38;42.27
41246;BME280;53880;47.526;18.986;2024-03-17T11:04:00;100110.00;;;21.36;42.08
41246;BME280;53880;47.526;18.986;2024-03-17T11:06:27;100128.75;;;21.36;42.38
41246;BME280;53880;47.526;18.986;2024-03-17T11:08:43;100116.34;;;21.35;42.21
41246;BME280;53880;47.526;18.986;2024-03-17T11:10:59;100118.34;;;21.33;42.42
41246;BME280;53880;47.526;18.986;2024-03-17T11:13:31;100109.50;;;21.33;42.20
41246;BME280;53880;47.526;18.986;2024-03-17T11:15:55;100122.22;;;21.31;42.38
41246;BME280;53880;47.526;18.986;2024-03-17T11:20:38;100126.19;;;21.26;42.20
41246;BME280;53880;47.526;18.986;2024-03-17T11:22:58;100113.13;;;21.23;42.17
41246;BME280;53880;47.526;18.986;2024-03-17T11:27:45;100139.72;;;21.17;42.23
41246;BME280;53880;47.526;18.986;2024-03-17T11:35:46;100133.00;;;21.13;42.17
41246;BME280;53880;47.526;18.986;2024-03-17T11:38:06;100121.59;;;21.11;42.07
41246;BME280;53880;47.526;18.986;2024-03-17T11:40:27;100132.31;;;21.11;41.84
41246;BME280;53880;47.526;18.986;2024-03-17T11:43:01;100128.97;;;21.09;42.06
41246;BME280;53880;47.526;18.986;2024-03-17T11:45:21;100138.66;;;21.10;42.00
41246;BME280;53880;47.526;18.986;2024-03-17T11:47:40;100118.25;;;21.09;41.78
41246;BME280;53880;47.526;18.986;2024-03-17T11:50:04;100131.97;;;21.06;41.72
41246;BME280;53880;47.526;18.986;2024-03-17T11:52:22;100133.97;;;21.04;41.97
41246;BME280;53880;47.526;18.986;2024-03-17T11:54:41;100132.25;;;21.03;41.98
41246;BME280;53880;47.526;18.986;2024-03-17T11:57:03;100128.88;;;21.01;41.99
41246;BME280;53880;47.526;18.986;2024-03-17T11:59:23;100137.75;;;21.01;42.07
41246;BME280;53880;47.526;18.986;2024-03-17T12:01:44;100120.16;;;20.99;41.58
41246;BME280;53880;47.526;18.986;2024-03-17T12:04:09;100105.91;;;20.98;41.95
41246;BME280;53880;47.526;18.986;2024-03-17T12:06:26;100097.38;;;20.95;41.87
41246;BME280;53880;47.526;18.986;2024-03-17T12:08:42;100109.09;;;20.94;42.04
41246;BME280;53880;47.526;18.986;2024-03-17T12:11:04;100115.44;;;20.93;41.60
41246;BME280;53880;47.526;18.986;2024-03-17T12:13:35;100111.91;;;20.92;42.17
41246;BME280;53880;47.526;18.986;2024-03-17T12:16:10;100111.22;;;20.90;41.88